createdAt,value
2022-09-07T00:01:04.551Z,21.17
2022-09-07T00:03:32.052Z,21.21
2022-09-07T00:05:59.477Z,21.08
2022-09-07T00:08:27.724Z,21.10
2022-09-07T00:10:57.787Z,21.00
2022-09-07T00:13:27.559Z,21.39
2022-09-07T00:15:54.901Z,21.48
2022-09-07T00:18:21.933Z,21.61
2022-09-07T00:20:59.863Z,21.37
2022-09-07T00:23:28.671Z,21.60
2022-09-07T00:26:02.884Z,21.50
2022-09-07T00:28:30.965Z,21.54
2022-09-07T00:30:58.231Z,21.54
2022-09-07T00:33:25.744Z,21.32
2022-09-07T00:35:53.058Z,21.33
2022-09-07T00:38:20.230Z,21.28
2022-09-07T00:40:47.223Z,20.85
2022-09-07T00:43:29.020Z,21.07
2022-09-07T00:45:56.310Z,21.07
2022-09-07T00:48:32.972Z,21.21
2022-09-07T00:51:05.661Z,21.32
2022-09-07T00:53:43.180Z,21.37
2022-09-07T00:56:11.660Z,21.29
2022-09-07T00:58:42.499Z,21.19
2022-09-07T01:01:10.341Z,21.05
2022-09-07T01:03:45.379Z,20.78
2022-09-07T01:06:21.325Z,20.58
2022-09-07T01:08:50.570Z,20.57
2022-09-07T01:11:20.018Z,20.59
2022-09-07T01:13:48.276Z,20.45
2022-09-07T01:16:37.896Z,20.66
2022-09-07T01:19:14.582Z,20.88
2022-09-07T01:22:06.386Z,21.02
2022-09-07T01:24:59.708Z,20.63
2022-09-07T01:27:51.543Z,20.93
2022-09-07T01:30:20.824Z,20.94
2022-09-07T01:33:13.545Z,21.01
2022-09-07T01:35:44.155Z,21.10
2022-09-07T01:38:19.499Z,20.91
2022-09-07T01:41:14.229Z,21.07
2022-09-07T01:44:01.566Z,21.00
2022-09-07T01:46:50.306Z,21.04
2022-09-07T01:49:20.969Z,21.03
2022-09-07T01:51:53.297Z,20.90
2022-09-07T01:54:45.772Z,20.40
2022-09-07T01:57:25.725Z,20.46
2022-09-07T02:00:13.097Z,20.34
2022-09-07T02:02:55.373Z,19.60
2022-09-07T02:05:37.584Z,20.22
2022-09-07T02:08:15.329Z,20.09
2022-09-07T02:10:51.130Z,19.41
2022-09-07T02:13:55.325Z,19.67
2022-09-07T02:16:45.422Z,19.42
2022-09-07T02:19:23.708Z,18.85
2022-09-07T02:22:27.607Z,19.32
2022-09-07T02:25:00.558Z,19.14
2022-09-07T02:27:53.819Z,18.97
2022-09-07T02:30:30.539Z,18.76
2022-09-07T02:33:08.048Z,18.72
2022-09-07T02:35:42.813Z,18.94
2022-09-07T02:38:32.483Z,18.69
2022-09-07T02:41:07.124Z,19.37
2022-09-07T02:43:38.497Z,19.77
2022-09-07T02:46:55.182Z,20.04
2022-09-07T02:49:58.068Z,19.49
2022-09-07T02:53:00.971Z,19.63
2022-09-07T02:55:51.234Z,19.73
2022-09-07T02:58:46.059Z,19.10
2022-09-07T03:01:32.958Z,19.44
2022-09-07T03:04:30.554Z,19.65
2022-09-07T03:07:24.798Z,19.99
2022-09-07T03:10:03.246Z,19.93
2022-09-07T03:13:01.888Z,19.94
2022-09-07T03:15:55.666Z,20.01
2022-09-07T03:18:29.914Z,20.10
2022-09-07T03:21:12.407Z,20.24
2022-09-07T03:23:40.627Z,20.16
2022-09-07T03:26:08.346Z,20.18
2022-09-07T03:28:43.335Z,19.88
2022-09-07T03:31:25.320Z,19.90
2022-09-07T03:33:55.875Z,19.94
2022-09-07T03:36:26.912Z,20.03
2022-09-07T03:39:06.936Z,19.94
2022-09-07T03:42:01.391Z,19.90
2022-09-07T03:44:34.147Z,19.69
2022-09-07T03:47:04.739Z,19.60
2022-09-07T03:49:31.860Z,19.13
2022-09-07T03:52:06.018Z,19.72
2022-09-07T03:54:42.254Z,19.68
2022-09-07T03:57:15.330Z,19.52
2022-09-07T03:59:55.611Z,19.59
2022-09-07T04:02:45.228Z,19.63
2022-09-07T04:05:42.303Z,19.71
2022-09-07T04:08:14.518Z,19.32
2022-09-07T04:10:47.943Z,19.52
2022-09-07T04:13:36.660Z,19.65
2022-09-07T04:16:14.313Z,19.62
2022-09-07T04:19:00.397Z,19.43
2022-09-07T04:21:31.666Z,19.47
2022-09-07T04:24:22.762Z,19.50
2022-09-07T04:26:53.658Z,19.33
2022-09-07T04:29:49.671Z,19.44
2022-09-07T04:32:53.507Z,19.44
2022-09-07T04:39:30.058Z,19.36
2022-09-07T04:42:04.649Z,19.51
2022-09-07T04:44:33.066Z,19.09
2022-09-07T04:47:29.960Z,19.41
2022-09-07T04:53:03.080Z,18.64
2022-09-07T04:55:35.835Z,18.55
2022-09-07T04:58:13.831Z,18.80
2022-09-07T05:01:09.550Z,18.58
2022-09-07T05:03:58.738Z,18.73
2022-09-07T05:06:36.465Z,18.85
2022-09-07T05:09:05.071Z,18.72
2022-09-07T05:11:34.137Z,18.84
2022-09-07T05:14:14.051Z,18.75
2022-09-07T05:17:01.563Z,18.66
2022-09-07T05:19:43.749Z,18.88
2022-09-07T05:22:13.329Z,18.96
2022-09-07T05:24:42.452Z,19.02
2022-09-07T05:27:53.319Z,19.15
2022-09-07T05:36:21.181Z,18.35
2022-09-07T05:38:48.417Z,18.22
2022-09-07T05:44:49.437Z,18.22
2022-09-07T05:47:34.336Z,18.56
2022-09-07T05:50:34.546Z,18.64
2022-09-07T05:53:13.870Z,18.61
2022-09-07T05:56:11.266Z,18.83
2022-09-07T05:58:39.603Z,18.98
2022-09-07T06:07:22.344Z,19.17
2022-09-07T06:12:54.342Z,18.78
2022-09-07T06:19:07.081Z,18.96
2022-09-07T06:22:31.163Z,19.33
2022-09-07T06:25:00.870Z,19.32
2022-09-07T06:27:34.998Z,19.45
2022-09-07T06:30:26.329Z,19.68
2022-09-07T06:33:47.765Z,19.84
2022-09-07T06:36:28.820Z,20.03
2022-09-07T06:39:05.477Z,20.08
2022-09-07T06:42:02.591Z,20.07
2022-09-07T06:55:18.895Z,20.54
2022-09-07T06:58:10.733Z,20.68
2022-09-07T07:04:47.179Z,20.63
2022-09-07T07:08:29.638Z,20.75
2022-09-07T07:11:39.071Z,20.80
2022-09-07T07:14:19.093Z,20.79
2022-09-07T07:17:15.410Z,20.54
2022-09-07T07:22:52.669Z,20.71
2022-09-07T07:25:41.774Z,20.84
2022-09-07T07:31:22.336Z,21.06
2022-09-07T07:35:04.377Z,21.35
2022-09-07T07:37:32.616Z,21.41
2022-09-07T07:43:25.044Z,21.07
2022-09-07T07:46:22.212Z,21.23
2022-09-07T08:01:28.197Z,22.49
2022-09-07T08:04:16.752Z,22.99
2022-09-07T08:06:48.717Z,23.24
2022-09-07T08:10:15.205Z,23.47
2022-09-07T08:15:38.962Z,23.71
2022-09-07T08:18:32.956Z,23.80
2022-09-07T08:24:09.871Z,23.11
2022-09-07T08:26:40.378Z,23.08
2022-09-07T08:29:12.375Z,23.00
2022-09-07T08:31:47.891Z,22.70
2022-09-07T08:34:37.597Z,23.21
2022-09-07T08:41:08.369Z,23.33
2022-09-07T08:47:41.358Z,23.46
2022-09-07T08:50:51.474Z,23.90
2022-09-07T09:05:16.168Z,23.97
2022-09-07T09:07:54.662Z,24.34
2022-09-07T09:10:48.878Z,24.38
2022-09-07T09:13:47.771Z,24.20
2022-09-07T09:16:31.815Z,24.23
2022-09-07T09:19:12.444Z,24.14
2022-09-07T09:21:46.995Z,24.18
2022-09-07T09:24:24.754Z,24.64
2022-09-07T09:26:56.998Z,25.28
2022-09-07T09:29:27.459Z,25.77
2022-09-07T09:31:57.993Z,25.87
2022-09-07T09:34:29.378Z,26.08
2022-09-07T09:37:06.063Z,26.13
2022-09-07T09:39:38.270Z,26.13
2022-09-07T09:42:18.112Z,26.13
2022-09-07T09:44:48.048Z,26.19
2022-09-07T09:47:33.185Z,26.77
2022-09-07T09:50:09.480Z,26.64
2022-09-07T09:52:49.224Z,26.81
2022-09-07T09:55:36.293Z,27.26
2022-09-07T10:01:36.381Z,27.98
2022-09-07T10:04:27.906Z,27.67
2022-09-07T10:07:17.552Z,27.95
2022-09-07T10:09:51.510Z,27.77
2022-09-07T10:12:29.736Z,28.35
2022-09-07T10:15:03.331Z,28.51
2022-09-07T10:17:51.492Z,28.23
2022-09-07T10:20:38.305Z,28.47
2022-09-07T10:23:21.853Z,28.13
2022-09-07T10:25:49.646Z,28.56
2022-09-07T10:28:24.291Z,28.36
2022-09-07T10:31:00.964Z,28.14
2022-09-07T10:33:41.613Z,28.74
2022-09-07T10:36:39.362Z,28.26
2022-09-07T10:39:30.921Z,28.33
2022-09-07T10:42:09.929Z,28.41
2022-09-07T10:44:39.778Z,28.40
2022-09-07T10:47:24.846Z,28.38
2022-09-07T10:50:25.878Z,28.59
2022-09-07T10:53:23.894Z,29.43
2022-09-07T10:56:18.009Z,28.91
2022-09-07T10:59:04.432Z,28.76
2022-09-07T11:01:54.490Z,28.55
2022-09-07T11:04:33.887Z,28.65
2022-09-07T11:07:41.198Z,28.66
2022-09-07T11:10:28.300Z,29.38
2022-09-07T11:13:03.146Z,29.09
2022-09-07T11:15:42.305Z,29.69
2022-09-07T11:18:19.643Z,30.48
2022-09-07T11:21:01.749Z,30.37
2022-09-07T11:23:43.599Z,32.30
2022-09-07T11:26:23.460Z,31.07
2022-09-07T11:32:11.016Z,29.87
2022-09-07T11:34:47.606Z,30.15
2022-09-07T11:37:16.189Z,29.38
2022-09-07T11:40:10.566Z,30.57
2022-09-07T11:42:59.809Z,29.54
2022-09-07T11:46:01.147Z,30.08
2022-09-07T11:48:48.861Z,29.21
2022-09-07T11:51:42.238Z,30.48
2022-09-07T11:54:27.792Z,30.60
2022-09-07T11:57:21.750Z,30.11
2022-09-07T12:00:02.424Z,31.08
2022-09-07T12:03:00.301Z,31.44
2022-09-07T12:05:51.367Z,31.61
2022-09-07T12:08:29.910Z,31.74
2022-09-07T12:11:09.187Z,31.63
2022-09-07T12:14:13.559Z,31.06
2022-09-07T12:16:55.048Z,31.60
2022-09-07T12:19:24.989Z,31.09
2022-09-07T12:21:51.908Z,32.41
2022-09-07T12:24:54.125Z,32.81
2022-09-07T12:27:23.967Z,32.59
2022-09-07T12:29:52.971Z,32.47
2022-09-07T12:32:58.105Z,32.11
2022-09-07T12:35:37.863Z,31.06
2022-09-07T12:38:31.675Z,31.51
2022-09-07T12:41:04.375Z,32.28
2022-09-07T12:43:43.648Z,31.52
2022-09-07T12:46:21.276Z,31.32
2022-09-07T12:48:58.214Z,31.23
2022-09-07T12:55:26.745Z,32.21
2022-09-07T12:58:12.500Z,32.60
2022-09-07T13:01:11.480Z,32.49
2022-09-07T13:03:56.677Z,31.57
2022-09-07T13:09:38.277Z,32.11
2022-09-07T13:13:04.465Z,33.15
2022-09-07T13:16:13.101Z,33.49
2022-09-07T13:18:44.976Z,31.99
2022-09-07T13:21:30.248Z,32.96
2022-09-07T13:27:33.801Z,30.72
2022-09-07T13:30:23.580Z,31.56
2022-09-07T13:33:32.655Z,31.32
2022-09-07T13:36:05.598Z,33.01
2022-09-07T13:38:35.776Z,32.03
2022-09-07T13:41:08.296Z,32.40
2022-09-07T13:43:35.289Z,32.15
2022-09-07T13:46:13.384Z,30.97
2022-09-07T13:48:56.606Z,31.16
2022-09-07T13:51:38.189Z,31.07
2022-09-07T13:54:49.737Z,31.44
2022-09-07T13:57:31.243Z,31.63
2022-09-07T14:00:04.863Z,30.75
2022-09-07T14:02:36.688Z,31.04
2022-09-07T14:05:04.543Z,30.63
2022-09-07T14:07:45.007Z,30.75
2022-09-07T14:10:21.838Z,30.34
2022-09-07T14:13:05.229Z,30.98
2022-09-07T14:15:46.063Z,30.62
2022-09-07T14:18:30.044Z,30.39
2022-09-07T14:20:59.623Z,30.44
2022-09-07T14:23:30.755Z,29.86
2022-09-07T14:26:17.553Z,30.28
2022-09-07T14:28:55.812Z,29.75
2022-09-07T14:31:25.276Z,29.36
2022-09-07T14:34:01.005Z,29.63
2022-09-07T14:36:44.583Z,29.75
2022-09-07T14:39:19.621Z,29.35
2022-09-07T14:41:47.536Z,29.04
2022-09-07T14:44:36.718Z,29.27
2022-09-07T14:47:20.381Z,29.01
2022-09-07T14:49:55.990Z,29.88
2022-09-07T14:52:42.384Z,29.42
2022-09-07T14:55:33.214Z,29.59
2022-09-07T14:58:22.903Z,29.52
2022-09-07T15:03:43.439Z,29.93
2022-09-07T15:09:36.643Z,29.73
2022-09-07T15:12:36.122Z,29.33
2022-09-07T15:15:26.549Z,29.55
2022-09-07T15:18:05.799Z,29.64
2022-09-07T15:20:45.413Z,29.26
2022-09-07T15:23:19.320Z,28.99
2022-09-07T15:25:53.553Z,29.14
2022-09-07T15:34:20.192Z,28.72
2022-09-07T15:36:52.931Z,28.41
2022-09-07T15:39:28.254Z,28.68
2022-09-07T15:41:55.993Z,28.64
2022-09-07T15:44:28.327Z,28.22
2022-09-07T15:49:55.368Z,28.45
2022-09-07T15:52:25.030Z,28.47
2022-09-07T15:54:56.660Z,28.31
2022-09-07T16:00:18.525Z,28.36
2022-09-07T16:03:05.866Z,28.19
2022-09-07T16:05:34.192Z,27.30
2022-09-07T16:10:54.128Z,27.06
2022-09-07T16:13:31.205Z,27.29
2022-09-07T16:15:59.816Z,27.06
2022-09-07T16:18:33.110Z,27.10
2022-09-07T16:21:14.175Z,26.43
2022-09-07T16:23:48.084Z,26.70
2022-09-07T16:26:20.012Z,26.69
2022-09-07T16:28:51.815Z,27.09
2022-09-07T16:31:24.388Z,27.44
2022-09-07T16:34:01.935Z,26.68
2022-09-07T16:36:32.323Z,27.01
2022-09-07T16:39:03.940Z,26.94
2022-09-07T16:41:44.198Z,26.84
2022-09-07T16:44:19.432Z,26.65
2022-09-07T16:46:50.649Z,26.64
2022-09-07T16:49:23.663Z,25.73
2022-09-07T16:52:10.933Z,26.04
2022-09-07T16:54:40.494Z,25.98
2022-09-07T16:57:10.538Z,26.34
2022-09-07T16:59:37.761Z,25.80
2022-09-07T17:02:07.221Z,26.06
2022-09-07T17:04:34.399Z,26.20
2022-09-07T17:07:07.257Z,25.83
2022-09-07T17:09:41.310Z,25.65
2022-09-07T17:12:09.131Z,25.68
2022-09-07T17:14:40.321Z,25.45
2022-09-07T17:17:10.486Z,26.06
2022-09-07T17:19:46.582Z,26.13
2022-09-07T17:22:13.671Z,26.06
2022-09-07T17:24:42.748Z,26.07
2022-09-07T17:27:18.629Z,25.60
2022-09-07T17:29:45.864Z,25.37
2022-09-07T17:32:25.765Z,25.55
2022-09-07T17:34:56.547Z,25.41
2022-09-07T17:37:26.881Z,25.43
2022-09-07T17:39:53.978Z,25.38
2022-09-07T17:42:22.648Z,25.76
2022-09-07T17:44:52.903Z,25.89
2022-09-07T17:47:23.642Z,25.08
2022-09-07T17:49:50.678Z,25.35
2022-09-07T17:52:26.074Z,25.39
2022-09-07T17:54:56.287Z,25.24
2022-09-07T17:57:29.632Z,25.07
2022-09-07T18:00:14.298Z,24.93
2022-09-07T18:02:41.433Z,24.84
2022-09-07T18:05:14.614Z,24.49
2022-09-07T18:07:49.781Z,24.85
2022-09-07T18:10:26.860Z,24.94
2022-09-07T18:13:03.362Z,24.87
2022-09-07T18:15:33.143Z,24.59
2022-09-07T18:18:05.857Z,23.89
2022-09-07T18:20:34.599Z,24.01
2022-09-07T18:23:05.316Z,24.12
2022-09-07T18:25:38.655Z,24.89
2022-09-07T18:30:56.088Z,23.94
2022-09-07T18:33:23.430Z,23.65
2022-09-07T18:35:52.735Z,23.61
2022-09-07T18:38:22.189Z,23.14
2022-09-07T18:40:55.268Z,23.41
2022-09-07T18:43:22.785Z,23.21
2022-09-07T18:45:49.910Z,23.27
2022-09-07T18:48:19.693Z,23.42
2022-09-07T18:50:57.852Z,23.50
2022-09-07T18:53:27.408Z,23.31
2022-09-07T18:56:14.255Z,23.30
2022-09-07T18:58:42.475Z,24.12
2022-09-07T19:01:14.924Z,23.86
2022-09-07T19:03:43.709Z,23.81
2022-09-07T19:06:15.503Z,23.65
2022-09-07T19:08:44.195Z,23.51
2022-09-07T19:11:17.600Z,23.50
2022-09-07T19:13:50.823Z,23.61
2022-09-07T19:16:22.834Z,23.76
2022-09-07T19:18:57.440Z,24.18
2022-09-07T19:21:27.147Z,24.41
2022-09-07T19:24:03.245Z,24.61
2022-09-07T19:26:35.818Z,24.70
2022-09-07T19:29:10.565Z,24.72
2022-09-07T19:31:43.720Z,24.64
2022-09-07T19:34:11.246Z,24.64
2022-09-07T19:36:38.870Z,23.31
2022-09-07T19:39:08.974Z,22.50
2022-09-07T19:41:42.161Z,22.62
2022-09-07T19:44:11.815Z,21.53
2022-09-07T19:46:38.892Z,22.80
2022-09-07T19:49:18.907Z,23.42
2022-09-07T19:51:52.227Z,23.73
2022-09-07T19:54:24.675Z,23.76
2022-09-07T19:56:54.616Z,23.21
2022-09-07T19:59:21.711Z,23.54
2022-09-07T20:01:50.766Z,23.05
2022-09-07T20:04:23.506Z,22.31
2022-09-07T20:06:52.271Z,22.09
2022-09-07T20:09:20.663Z,22.50
2022-09-07T20:11:53.797Z,22.66
2022-09-07T20:14:20.893Z,22.51
2022-09-07T20:16:50.318Z,21.72
2022-09-07T20:19:22.472Z,22.13
2022-09-07T20:21:55.978Z,22.63
2022-09-07T20:24:23.659Z,22.71
2022-09-07T20:26:50.702Z,22.52
2022-09-07T20:29:27.890Z,22.85
2022-09-07T20:31:58.114Z,22.70
2022-09-07T20:34:26.464Z,22.53
2022-09-07T20:36:54.280Z,22.47
2022-09-07T20:39:24.483Z,22.65
2022-09-07T20:41:51.758Z,22.59
2022-09-07T20:44:23.906Z,22.34
2022-09-07T20:46:56.571Z,22.41
2022-09-07T20:49:26.321Z,22.41
2022-09-07T20:51:56.255Z,22.18
2022-09-07T20:54:28.567Z,21.84
2022-09-07T20:57:03.985Z,21.81
2022-09-07T20:59:32.245Z,21.54
2022-09-07T21:02:07.242Z,21.60
2022-09-07T21:04:36.961Z,21.56
2022-09-07T21:07:09.609Z,21.64
2022-09-07T21:09:36.687Z,21.95
2022-09-07T21:12:08.935Z,21.83
2022-09-07T21:14:38.362Z,21.87
2022-09-07T21:17:13.979Z,21.91
2022-09-07T21:19:43.612Z,22.04
2022-09-07T21:22:13.693Z,21.89
2022-09-07T21:24:41.177Z,21.59
2022-09-07T21:27:14.152Z,21.46
2022-09-07T21:29:46.911Z,21.72
2022-09-07T21:32:16.800Z,21.98
2022-09-07T21:34:43.796Z,21.91
2022-09-07T21:37:16.109Z,22.08
2022-09-07T21:39:45.705Z,21.86
2022-09-07T21:42:18.631Z,22.00
2022-09-07T21:44:50.807Z,22.03
2022-09-07T21:47:17.673Z,22.19
2022-09-07T21:49:47.568Z,22.32
2022-09-07T21:52:14.731Z,22.41
2022-09-07T21:54:44.846Z,22.41
2022-09-07T21:57:19.970Z,22.35
2022-09-07T21:59:47.002Z,22.20
2022-09-07T22:02:22.328Z,22.38
2022-09-07T22:04:54.550Z,22.24
2022-09-07T22:07:26.852Z,21.96
2022-09-07T22:09:56.568Z,21.43
2022-09-07T22:12:29.314Z,21.65
2022-09-07T22:14:59.311Z,21.83
2022-09-07T22:17:29.420Z,21.91
2022-09-07T22:19:59.518Z,21.58
2022-09-07T22:22:26.598Z,21.76
2022-09-07T22:24:55.885Z,21.77
2022-09-07T22:27:25.377Z,21.72
2022-09-07T22:29:55.577Z,21.81
2022-09-07T22:32:25.487Z,21.64
2022-09-07T22:34:57.969Z,21.68
2022-09-07T22:37:47.190Z,21.17
2022-09-07T22:40:17.306Z,20.93
2022-09-07T22:42:52.797Z,20.55
2022-09-07T22:45:19.750Z,20.46
2022-09-07T22:47:47.717Z,20.53
2022-09-07T22:50:20.608Z,20.67
2022-09-07T22:52:50.695Z,20.74
2022-09-07T22:55:20.764Z,20.64
2022-09-07T22:57:50.692Z,20.64
2022-09-07T23:00:23.126Z,20.16
2022-09-07T23:03:00.179Z,20.10
2022-09-07T23:05:35.210Z,20.28
2022-09-07T23:08:07.238Z,20.29
2022-09-07T23:10:38.194Z,20.09
2022-09-07T23:13:05.609Z,20.20
2022-09-07T23:15:38.269Z,20.09
2022-09-07T23:18:05.237Z,19.98
2022-09-07T23:20:36.849Z,19.73
2022-09-07T23:23:11.131Z,19.69
2022-09-07T23:26:29.402Z,19.51
2022-09-07T23:29:22.376Z,18.85
2022-09-07T23:31:52.521Z,19.11
2022-09-07T23:35:22.249Z,18.88
